Time;durP1;ratioP1;P1;durP2;ratioP2;P2;SDS_P1;SDS_P2;PMS_P1;PMS_P2;Temp;Humidity;BMP_temperature;BMP_pressure;BME280_temperature;BME280_humidity;BME280_pressure;Samples;Min_cycle;Max_cycle;Signal;HPM_P1;HPM_P2
2024/01/29 00:00:39;;;;;;;2.40;1.42;;;;;;;;;;5055426;28;20056;-59
2024/01/29 00:03:07;;;;;;;1.70;1.13;;;;;;;;;;5055525;28;20128;-58
2024/01/29 00:05:34;;;;;;;2.40;1.60;;;;;;;;;;5075532;28;20082;-58
2024/01/29 00:08:02;;;;;;;2.88;1.35;;;;;;;;;;5075417;28;20057;-58
2024/01/29 00:10:29;;;;;;;2.93;1.40;;;;;;;;;;5075447;28;20059;-58
2024/01/29 00:12:56;;;;;;;2.17;1.30;;;;;;;;;;5074481;28;20052;-58
2024/01/29 00:15:23;;;;;;;1.85;1.20;;;;;;;;;;5075223;28;20059;-57
2024/01/29 00:17:50;;;;;;;2.40;1.40;;;;;;;;;;5074815;28;20413;-58
2024/01/29 00:20:16;;;;;;;3.05;1.40;;;;;;;;;;5074913;28;20071;-58
2024/01/29 00:22:43;;;;;;;3.03;1.50;;;;;;;;;;5074988;28;20555;-58
2024/01/29 00:25:11;;;;;;;2.42;1.42;;;;;;;;;;5074939;28;20052;-58
2024/01/29 00:27:38;;;;;;;2.53;1.50;;;;;;;;;;5075009;28;20401;-58
2024/01/29 00:30:06;;;;;;;2.60;1.50;;;;;;;;;;5074907;28;20056;-58
2024/01/29 00:32:32;;;;;;;2.00;1.40;;;;;;;;;;5074378;28;20425;-58
2024/01/29 00:34:59;;;;;;;2.35;1.30;;;;;;;;;;5074516;28;20053;-58
2024/01/29 00:37:26;;;;;;;2.58;1.58;;;;;;;;;;5074682;28;20056;-59
2024/01/29 00:39:53;;;;;;;2.63;1.50;;;;;;;;;;5074107;28;20067;-58
2024/01/29 00:42:21;;;;;;;2.35;1.60;;;;;;;;;;5074695;28;20063;-58
2024/01/29 00:44:49;;;;;;;3.35;1.40;;;;;;;;;;5074434;28;20056;-57
2024/01/29 00:47:16;;;;;;;2.67;1.80;;;;;;;;;;5074144;28;20049;-57
2024/01/29 00:49:43;;;;;;;2.80;1.60;;;;;;;;;;5074463;28;20063;-58
2024/01/29 00:52:10;;;;;;;2.65;1.60;;;;;;;;;;5074419;28;20076;-58
2024/01/29 00:54:36;;;;;;;2.70;1.67;;;;;;;;;;5074409;28;20401;-58
2024/01/29 00:57:03;;;;;;;3.42;1.50;;;;;;;;;;5073883;28;20052;-57
2024/01/29 00:59:31;;;;;;;2.53;1.50;;;;;;;;;;5074209;28;20053;-58
2024/01/29 01:01:58;;;;;;;3.83;1.73;;;;;;;;;;5074235;28;20052;-58
2024/01/29 01:04:25;;;;;;;2.75;1.52;;;;;;;;;;5062136;28;20055;-58
2024/01/29 01:06:52;;;;;;;4.32;1.73;;;;;;;;;;5053849;28;20056;-58
2024/01/29 01:09:19;;;;;;;3.28;1.65;;;;;;;;;;5054136;28;20486;-58
2024/01/29 01:11:45;;;;;;;2.67;1.70;;;;;;;;;;5053762;28;20057;-58
2024/01/29 01:14:12;;;;;;;3.35;1.80;;;;;;;;;;5053956;28;20053;-58
2024/01/29 01:16:41;;;;;;;3.47;1.90;;;;;;;;;;5053966;28;20068;-58
2024/01/29 01:19:07;;;;;;;3.92;2.08;;;;;;;;;;5054010;28;20469;-58
2024/01/29 01:21:34;;;;;;;3.63;1.73;;;;;;;;;;5053868;28;20413;-58
2024/01/29 01:24:02;;;;;;;2.75;1.67;;;;;;;;;;5052768;28;20045;-58
2024/01/29 01:26:28;;;;;;;2.25;1.50;;;;;;;;;;5053639;28;20049;-58
2024/01/29 01:28:55;;;;;;;2.97;1.65;;;;;;;;;;5053638;28;20057;-58
2024/01/29 01:31:22;;;;;;;2.53;1.48;;;;;;;;;;5053694;28;20410;-59
2024/01/29 01:33:50;;;;;;;2.22;1.60;;;;;;;;;;5053285;28;20139;-58
2024/01/29 01:36:17;;;;;;;3.15;1.88;;;;;;;;;;5053553;28;20060;-58
2024/01/29 01:38:44;;;;;;;2.63;1.95;;;;;;;;;;5052974;28;20056;-57
2024/01/29 01:41:10;;;;;;;3.13;1.88;;;;;;;;;;5053540;28;20052;-58
2024/01/29 01:43:37;;;;;;;2.20;1.58;;;;;;;;;;5053244;28;20159;-58
2024/01/29 01:46:17;;;;;;;2.58;1.92;;;;;;;;;;5052230;28;20057;-58
2024/01/29 01:48:44;;;;;;;2.78;1.67;;;;;;;;;;5057498;28;20390;-58
2024/01/29 01:51:12;;;;;;;3.35;1.88;;;;;;;;;;5073220;28;20063;-58
2024/01/29 01:53:39;;;;;;;2.45;1.60;;;;;;;;;;5073089;28;20413;-58
2024/01/29 01:56:07;;;;;;;2.53;1.63;;;;;;;;;;5073195;28;20056;-58
2024/01/29 01:58:34;;;;;;;2.50;1.60;;;;;;;;;;5073119;28;20431;-58
2024/01/29 02:01:01;;;;;;;2.40;1.67;;;;;;;;;;5072874;28;20059;-58
2024/01/29 02:03:28;;;;;;;2.30;1.80;;;;;;;;;;5069331;28;20049;-58
2024/01/29 02:05:54;;;;;;;3.30;1.70;;;;;;;;;;5052928;28;20045;-58
2024/01/29 02:08:23;;;;;;;2.45;1.60;;;;;;;;;;5053049;28;20060;-58
2024/01/29 02:10:51;;;;;;;3.10;1.52;;;;;;;;;;5052660;28;20384;-58
2024/01/29 02:13:17;;;;;;;2.88;1.88;;;;;;;;;;5052801;28;20048;-58
2024/01/29 02:15:44;;;;;;;4.65;1.90;;;;;;;;;;5053069;28;20052;-58
2024/01/29 02:18:11;;;;;;;3.05;1.80;;;;;;;;;;5052842;28;20049;-58
2024/01/29 02:20:38;;;;;;;2.38;1.70;;;;;;;;;;5053090;28;20060;-59
2024/01/29 02:23:06;;;;;;;2.90;1.77;;;;;;;;;;5052803;28;20053;-58
2024/01/29 02:25:33;;;;;;;3.20;1.60;;;;;;;;;;5052924;28;20557;-58
2024/01/29 02:28:00;;;;;;;2.40;1.88;;;;;;;;;;5052824;28;20049;-59
2024/01/29 02:30:27;;;;;;;3.00;1.90;;;;;;;;;;5052343;28;20053;-58
2024/01/29 02:32:53;;;;;;;2.85;1.80;;;;;;;;;;5052233;28;20064;-58
2024/01/29 02:35:20;;;;;;;2.58;1.60;;;;;;;;;;5052552;28;20049;-58
2024/01/29 02:37:47;;;;;;;2.90;1.70;;;;;;;;;;5052601;28;20060;-58
2024/01/29 02:40:15;;;;;;;2.97;1.83;;;;;;;;;;5052058;28;20053;-58
2024/01/29 02:42:42;;;;;;;2.78;1.90;;;;;;;;;;5052298;28;20053;-59
2024/01/29 02:45:09;;;;;;;2.92;1.48;;;;;;;;;;5052302;28;20434;-58
2024/01/29 02:47:36;;;;;;;4.25;1.88;;;;;;;;;;5052599;28;20052;-58
2024/01/29 02:50:03;;;;;;;2.90;1.80;;;;;;;;;;5052570;28;20053;-58
2024/01/29 02:52:30;;;;;;;5.50;1.90;;;;;;;;;;5052425;28;20103;-58
2024/01/29 02:54:56;;;;;;;3.00;1.80;;;;;;;;;;5052365;28;20056;-58
2024/01/29 02:57:24;;;;;;;3.17;1.90;;;;;;;;;;5052138;28;20053;-58
2024/01/29 02:59:51;;;;;;;2.80;1.67;;;;;;;;;;5052400;28;20056;-58
2024/01/29 03:02:18;;;;;;;4.28;2.10;;;;;;;;;;5052040;28;20509;-58
2024/01/29 03:04:45;;;;;;;2.60;1.77;;;;;;;;;;5052274;28;20045;-58
2024/01/29 03:07:12;;;;;;;2.80;1.88;;;;;;;;;;5052174;28;20136;-58
2024/01/29 03:09:39;;;;;;;2.80;1.98;;;;;;;;;;5051980;28;20076;-58
2024/01/29 03:12:06;;;;;;;3.08;1.85;;;;;;;;;;5051702;28;20080;-58
2024/01/29 03:14:34;;;;;;;2.40;1.70;;;;;;;;;;5052147;28;20053;-59
2024/01/29 03:17:01;;;;;;;2.70;1.80;;;;;;;;;;5052156;28;20053;-58
2024/01/29 03:19:27;;;;;;;4.57;2.20;;;;;;;;;;5051846;28;20072;-59
2024/01/29 03:21:54;;;;;;;2.55;1.92;;;;;;;;;;5051669;28;20132;-58
2024/01/29 03:24:21;;;;;;;3.47;1.90;;;;;;;;;;5051650;28;20049;-58
2024/01/29 03:26:48;;;;;;;3.50;1.80;;;;;;;;;;5052303;28;20053;-58
2024/01/29 03:29:15;;;;;;;3.83;1.98;;;;;;;;;;5051929;28;20397;-58
2024/01/29 03:31:43;;;;;;;3.88;2.40;;;;;;;;;;5051964;28;20056;-58
2024/01/29 03:34:09;;;;;;;2.80;1.70;;;;;;;;;;5051771;28;20052;-58
2024/01/29 03:36:36;;;;;;;2.67;2.03;;;;;;;;;;5051626;28;20057;-57
2024/01/29 03:39:03;;;;;;;3.45;2.13;;;;;;;;;;5051281;28;20061;-57
2024/01/29 03:41:30;;;;;;;4.68;2.10;;;;;;;;;;5051955;28;20071;-58
2024/01/29 03:43:57;;;;;;;2.53;2.00;;;;;;;;;;5051747;28;20053;-58
2024/01/29 03:46:23;;;;;;;3.10;2.20;;;;;;;;;;5051694;28;20049;-58
2024/01/29 03:48:52;;;;;;;3.80;2.53;;;;;;;;;;5055034;28;20056;-58
2024/01/29 03:51:18;;;;;;;4.03;2.20;;;;;;;;;;5055306;28;20076;-58
2024/01/29 03:53:45;;;;;;;4.13;2.30;;;;;;;;;;5054828;28;20063;-59
2024/01/29 03:56:12;;;;;;;4.30;2.40;;;;;;;;;;5055110;28;20045;-58
2024/01/29 03:58:39;;;;;;;4.13;2.47;;;;;;;;;;5055016;28;20060;-58
2024/01/29 04:01:06;;;;;;;4.07;1.98;;;;;;;;;;5054892;28;20052;-58
2024/01/29 04:03:33;;;;;;;3.20;2.13;;;;;;;;;;5054579;28;20045;-58
2024/01/29 04:06:02;;;;;;;3.88;2.00;;;;;;;;;;5054665;28;20053;-58
2024/01/29 04:08:29;;;;;;;2.90;1.98;;;;;;;;;;5055077;28;20053;-58
2024/01/29 04:10:55;;;;;;;3.65;2.20;;;;;;;;;;5054824;28;20064;-58
2024/01/29 04:13:22;;;;;;;3.20;2.17;;;;;;;;;;5054923;28;20053;-58
2024/01/29 04:15:49;;;;;;;3.50;2.30;;;;;;;;;;5055033;28;20060;-59
2024/01/29 04:18:16;;;;;;;4.63;2.25;;;;;;;;;;5054760;28;20063;-58
2024/01/29 04:20:43;;;;;;;2.97;2.10;;;;;;;;;;5054431;28;20060;-58
2024/01/29 04:23:11;;;;;;;3.60;2.05;;;;;;;;;;5054394;28;20083;-58
2024/01/29 04:25:37;;;;;;;4.43;2.72;;;;;;;;;;5054872;28;20425;-57
2024/01/29 04:28:04;;;;;;;4.70;3.30;;;;;;;;;;5054488;28;20049;-58
2024/01/29 04:30:31;;;;;;;3.75;2.58;;;;;;;;;;5054899;28;20053;-57
2024/01/29 04:32:58;;;;;;;3.85;2.40;;;;;;;;;;5054694;28;20056;-58
2024/01/29 04:35:25;;;;;;;2.80;2.05;;;;;;;;;;5054575;28;20060;-57
2024/01/29 04:37:51;;;;;;;4.38;2.50;;;;;;;;;;5054445;28;20060;-58
2024/01/29 04:40:22;;;;;;;3.47;2.33;;;;;;;;;;5054078;28;20502;-57
2024/01/29 04:42:49;;;;;;;7.55;2.50;;;;;;;;;;5054233;28;20064;-57
2024/01/29 04:45:16;;;;;;;4.05;2.05;;;;;;;;;;5054539;28;20053;-58
2024/01/29 04:47:43;;;;;;;4.30;2.65;;;;;;;;;;5054402;28;20049;-58
2024/01/29 04:50:10;;;;;;;3.63;2.28;;;;;;;;;;5054467;28;20056;-58
2024/01/29 04:52:37;;;;;;;3.28;2.25;;;;;;;;;;5054049;28;20063;-58
2024/01/29 04:55:04;;;;;;;3.45;2.40;;;;;;;;;;5054540;28;20160;-57
2024/01/29 04:57:32;;;;;;;4.45;2.70;;;;;;;;;;5054179;28;20060;-57
2024/01/29 04:59:59;;;;;;;6.30;3.10;;;;;;;;;;5054216;28;20052;-58
2024/01/29 05:02:25;;;;;;;4.85;2.80;;;;;;;;;;5054018;28;20067;-58
2024/01/29 05:04:52;;;;;;;5.53;3.53;;;;;;;;;;5053908;28;20057;-58
2024/01/29 05:07:19;;;;;;;4.93;3.20;;;;;;;;;;5053673;28;20509;-58
2024/01/29 05:09:46;;;;;;;3.60;2.22;;;;;;;;;;5053996;28;20053;-58
2024/01/29 05:12:13;;;;;;;4.28;2.60;;;;;;;;;;5053881;28;20068;-58
2024/01/29 05:14:41;;;;;;;4.40;2.35;;;;;;;;;;5053842;28;20052;-58
2024/01/29 05:17:07;;;;;;;4.32;2.33;;;;;;;;;;5053461;28;20048;-58
2024/01/29 05:19:34;;;;;;;4.57;2.78;;;;;;;;;;5053716;28;20064;-58
2024/01/29 05:22:01;;;;;;;3.80;2.50;;;;;;;;;;5053641;28;20490;-59
2024/01/29 05:24:28;;;;;;;2.72;2.30;;;;;;;;;;5053583;28;20052;-59
2024/01/29 05:26:55;;;;;;;4.15;2.42;;;;;;;;;;5053397;28;20045;-59
2024/01/29 05:29:22;;;;;;;4.47;2.63;;;;;;;;;;5053545;28;20057;-58
2024/01/29 05:31:50;;;;;;;4.55;2.42;;;;;;;;;;5053551;28;20053;-58
2024/01/29 05:34:17;;;;;;;4.28;2.55;;;;;;;;;;5053485;28;20391;-58
2024/01/29 05:36:44;;;;;;;4.55;2.70;;;;;;;;;;5053357;28;20059;-59
2024/01/29 05:39:11;;;;;;;4.18;2.80;;;;;;;;;;5052944;28;20068;-59
2024/01/29 05:41:37;;;;;;;3.72;2.58;;;;;;;;;;5053017;28;20053;-58
2024/01/29 05:44:03;;;;;;;5.43;3.10;;;;;;;;;;5053029;28;20052;-58
2024/01/29 05:46:30;;;;;;;4.30;3.05;;;;;;;;;;5052830;28;20141;-58
2024/01/29 05:48:58;;;;;;;4.20;2.70;;;;;;;;;;5052999;28;20483;-58
2024/01/29 05:51:25;;;;;;;3.80;2.95;;;;;;;;;;5052886;28;20057;-58
2024/01/29 05:53:52;;;;;;;3.83;2.60;;;;;;;;;;5052801;28;20056;-58
2024/01/29 05:56:18;;;;;;;3.80;2.80;;;;;;;;;;5053066;28;20422;-58
2024/01/29 05:58:46;;;;;;;3.80;2.70;;;;;;;;;;5052879;28;20049;-58
2024/01/29 06:01:13;;;;;;;3.80;2.50;;;;;;;;;;5052909;28;20056;-58
2024/01/29 06:03:40;;;;;;;4.53;2.88;;;;;;;;;;5052656;28;20049;-58
2024/01/29 06:06:08;;;;;;;5.03;3.10;;;;;;;;;;5052458;28;20486;-58
2024/01/29 06:08:35;;;;;;;4.75;2.95;;;;;;;;;;5052517;28;20053;-58
2024/01/29 06:11:01;;;;;;;4.22;2.35;;;;;;;;;;5052301;28;20398;-58
2024/01/29 06:13:28;;;;;;;4.45;2.95;;;;;;;;;;5052652;28;20505;-58
2024/01/29 06:15:55;;;;;;;4.90;2.78;;;;;;;;;;5052684;28;20531;-58
2024/01/29 06:18:22;;;;;;;4.20;2.65;;;;;;;;;;5052834;28;20486;-58
2024/01/29 06:20:49;;;;;;;3.13;2.50;;;;;;;;;;5052832;28;20406;-57
2024/01/29 06:23:17;;;;;;;5.05;2.90;;;;;;;;;;5052625;28;20064;-58
2024/01/29 06:25:44;;;;;;;4.85;3.17;;;;;;;;;;5052807;28;20053;-58
2024/01/29 06:28:11;;;;;;;6.07;3.60;;;;;;;;;;5052729;28;20053;-59
2024/01/29 06:30:37;;;;;;;5.63;3.80;;;;;;;;;;5052868;28;20064;-58
2024/01/29 06:33:05;;;;;;;4.88;3.40;;;;;;;;;;5052608;28;20387;-58
2024/01/29 06:35:31;;;;;;;5.30;3.08;;;;;;;;;;5052615;28;20060;-58
2024/01/29 06:37:58;;;;;;;4.80;3.22;;;;;;;;;;5052474;28;20055;-58
2024/01/29 06:40:27;;;;;;;4.72;3.30;;;;;;;;;;5051948;28;20056;-59
2024/01/29 06:42:54;;;;;;;5.35;3.17;;;;;;;;;;5052562;28;20059;-57
2024/01/29 06:45:21;;;;;;;5.57;2.90;;;;;;;;;;5052681;28;20081;-58
2024/01/29 06:47:48;;;;;;;3.78;2.97;;;;;;;;;;5052349;28;20041;-58
2024/01/29 06:50:15;;;;;;;5.10;3.20;;;;;;;;;;5052024;28;20060;-59
2024/01/29 06:52:42;;;;;;;5.57;3.00;;;;;;;;;;5052389;28;20063;-58
2024/01/29 06:55:08;;;;;;;5.10;2.85;;;;;;;;;;5052132;28;20053;-58
2024/01/29 06:57:36;;;;;;;7.97;3.28;;;;;;;;;;5052306;28;20056;-58
2024/01/29 07:00:05;;;;;;;3.97;2.92;;;;;;;;;;5052204;28;20398;-58
2024/01/29 07:02:32;;;;;;;4.85;2.90;;;;;;;;;;5052209;28;20414;-58
2024/01/29 07:04:59;;;;;;;7.97;3.60;;;;;;;;;;5052261;28;20056;-58
2024/01/29 07:07:25;;;;;;;4.93;3.20;;;;;;;;;;5052129;28;20421;-59
2024/01/29 07:09:54;;;;;;;6.40;3.25;;;;;;;;;;5052324;28;20055;-58
2024/01/29 07:12:20;;;;;;;5.20;2.80;;;;;;;;;;5051812;28;20048;-58
2024/01/29 07:14:49;;;;;;;5.30;3.13;;;;;;;;;;5052327;28;20060;-58
2024/01/29 07:17:16;;;;;;;5.03;2.77;;;;;;;;;;5052904;28;20360;-58
2024/01/29 07:19:45;;;;;;;5.43;3.17;;;;;;;;;;5059090;28;20057;-58
2024/01/29 07:22:18;;;;;;;4.20;2.70;;;;;;;;;;5056504;28;20068;-57
2024/01/29 07:24:45;;;;;;;5.32;3.20;;;;;;;;;;5068397;28;20053;-58
2024/01/29 07:27:12;;;;;;;7.53;3.25;;;;;;;;;;5065305;28;20052;-57
2024/01/29 07:29:38;;;;;;;4.68;3.00;;;;;;;;;;5060787;28;20064;-57
2024/01/29 07:32:07;;;;;;;5.53;2.75;;;;;;;;;;5067333;28;20063;-59
2024/01/29 07:34:34;;;;;;;4.73;3.33;;;;;;;;;;5069814;28;20048;-59
2024/01/29 07:37:01;;;;;;;3.50;2.88;;;;;;;;;;5065081;28;20475;-58
2024/01/29 07:39:30;;;;;;;4.03;2.75;;;;;;;;;;5065457;28;20067;-57
2024/01/29 07:41:57;;;;;;;4.85;3.10;;;;;;;;;;5070716;28;20068;-59
2024/01/29 07:44:23;;;;;;;5.40;3.05;;;;;;;;;;5069395;28;20071;-57
2024/01/29 07:46:50;;;;;;;3.88;2.80;;;;;;;;;;5070509;28;20044;-58
2024/01/29 07:49:19;;;;;;;3.97;2.72;;;;;;;;;;5064520;28;20063;-57
2024/01/29 07:51:46;;;;;;;4.17;2.73;;;;;;;;;;5070725;28;20052;-57
2024/01/29 07:54:13;;;;;;;4.15;2.60;;;;;;;;;;5067215;28;20049;-57
2024/01/29 07:56:41;;;;;;;4.05;2.78;;;;;;;;;;5055177;28;20501;-57
2024/01/29 07:59:08;;;;;;;3.42;2.70;;;;;;;;;;5054977;28;20057;-57
2024/01/29 08:01:35;;;;;;;6.20;2.80;;;;;;;;;;5068979;28;20060;-57
2024/01/29 08:04:03;;;;;;;4.40;2.80;;;;;;;;;;5059356;28;20052;-58
2024/01/29 08:06:31;;;;;;;4.30;2.60;;;;;;;;;;5074858;28;20056;-57
2024/01/29 08:08:58;;;;;;;4.20;2.65;;;;;;;;;;5065452;28;20060;-57
2024/01/29 08:11:25;;;;;;;4.88;2.90;;;;;;;;;;5059747;28;20441;-57
2024/01/29 08:13:51;;;;;;;5.40;2.70;;;;;;;;;;5074720;28;20056;-58
2024/01/29 08:16:18;;;;;;;7.75;3.70;;;;;;;;;;5065501;28;20056;-58
2024/01/29 08:18:45;;;;;;;5.38;3.50;;;;;;;;;;5075172;28;20052;-58
2024/01/29 08:21:12;;;;;;;8.25;4.70;;;;;;;;;;5059717;28;20053;-58
2024/01/29 08:23:40;;;;;;;6.78;4.47;;;;;;;;;;5062572;28;20061;-58
2024/01/29 08:26:07;;;;;;;7.00;4.13;;;;;;;;;;5064896;28;20394;-57
2024/01/29 08:28:34;;;;;;;5.80;4.40;;;;;;;;;;5074490;28;20120;-58
2024/01/29 08:31:01;;;;;;;6.32;3.63;;;;;;;;;;5071604;28;20060;-58
2024/01/29 08:33:29;;;;;;;8.32;5.65;;;;;;;;;;5062492;28;20120;-58
2024/01/29 08:35:56;;;;;;;5.88;4.38;;;;;;;;;;5054236;28;20053;-58
2024/01/29 08:38:23;;;;;;;7.10;4.68;;;;;;;;;;5062089;28;20049;-58
2024/01/29 08:40:52;;;;;;;9.95;4.22;;;;;;;;;;5063663;28;20064;-58
2024/01/29 08:43:19;;;;;;;5.07;3.80;;;;;;;;;;5062469;28;20056;-58
2024/01/29 08:45:46;;;;;;;6.00;3.60;;;;;;;;;;5059154;28;20055;-59
2024/01/29 08:48:13;;;;;;;5.35;3.53;;;;;;;;;;5056995;28;20387;-59
2024/01/29 08:50:40;;;;;;;5.97;3.58;;;;;;;;;;5060236;28;20474;-57
2024/01/29 08:53:07;;;;;;;7.32;3.75;;;;;;;;;;5072522;28;20056;-57
2024/01/29 08:55:34;;;;;;;5.53;3.40;;;;;;;;;;5060874;28;20505;-57
2024/01/29 08:58:02;;;;;;;4.10;3.13;;;;;;;;;;5067218;28;20053;-57
2024/01/29 09:00:29;;;;;;;4.75;3.47;;;;;;;;;;5056651;28;20060;-58
2024/01/29 09:02:55;;;;;;;5.55;3.38;;;;;;;;;;5069526;28;20051;-58
2024/01/29 09:05:22;;;;;;;4.70;3.42;;;;;;;;;;5074207;28;20057;-58
2024/01/29 09:07:49;;;;;;;3.95;2.67;;;;;;;;;;5062555;28;20072;-57
2024/01/29 09:10:16;;;;;;;4.40;3.10;;;;;;;;;;5056126;28;20475;-58
2024/01/29 09:12:43;;;;;;;3.45;2.90;;;;;;;;;;5070880;28;20064;-58
2024/01/29 09:15:12;;;;;;;5.85;4.03;;;;;;;;;;5073955;28;20405;-58
2024/01/29 09:17:40;;;;;;;4.43;2.88;;;;;;;;;;5060695;28;20057;-58
2024/01/29 09:20:08;;;;;;;5.20;3.88;;;;;;;;;;5053951;28;20049;-58
2024/01/29 09:22:35;;;;;;;6.13;3.97;;;;;;;;;;5055695;28;20052;-58
2024/01/29 09:25:02;;;;;;;7.22;4.20;;;;;;;;;;5056541;28;20053;-58
2024/01/29 09:27:29;;;;;;;8.38;4.38;;;;;;;;;;5055592;28;20049;-58
2024/01/29 09:29:56;;;;;;;8.38;4.03;;;;;;;;;;5057680;28;20051;-58
2024/01/29 09:32:24;;;;;;;5.35;3.25;;;;;;;;;;5058575;28;20053;-58
2024/01/29 09:34:51;;;;;;;6.32;3.85;;;;;;;;;;5066216;28;20070;-58
2024/01/29 09:37:18;;;;;;;5.13;3.25;;;;;;;;;;5061725;28;20064;-59
2024/01/29 09:39:45;;;;;;;5.00;2.90;;;;;;;;;;5056702;28;20060;-58
2024/01/29 09:42:17;;;;;;;6.57;2.75;;;;;;;;;;5056228;28;20049;-58
2024/01/29 09:44:45;;;;;;;3.60;2.78;;;;;;;;;;5070076;28;20057;-58
2024/01/29 09:47:13;;;;;;;3.30;2.63;;;;;;;;;;5054031;28;20049;-58
2024/01/29 09:49:42;;;;;;;3.85;2.80;;;;;;;;;;5070273;28;20060;-56
2024/01/29 09:52:11;;;;;;;3.50;2.78;;;;;;;;;;5061821;28;20048;-57
2024/01/29 09:54:38;;;;;;;3.20;2.35;;;;;;;;;;5078877;28;20490;-57
2024/01/29 09:57:05;;;;;;;2.78;2.42;;;;;;;;;;5070492;28;20049;-57
2024/01/29 09:59:32;;;;;;;3.58;2.65;;;;;;;;;;5054897;28;20064;-57
2024/01/29 10:02:01;;;;;;;4.82;3.10;;;;;;;;;;5069393;28;20186;-57
2024/01/29 10:04:27;;;;;;;3.47;3.00;;;;;;;;;;5068059;28;20052;-57
2024/01/29 10:06:55;;;;;;;5.00;2.90;;;;;;;;;;5056721;28;20049;-57
2024/01/29 10:09:22;;;;;;;3.88;2.85;;;;;;;;;;5057177;28;20493;-57
2024/01/29 10:11:50;;;;;;;6.05;3.17;;;;;;;;;;5056573;28;20403;-57
2024/01/29 10:14:16;;;;;;;4.18;3.15;;;;;;;;;;5067927;28;20053;-57
2024/01/29 10:16:43;;;;;;;4.55;2.60;;;;;;;;;;5071714;28;20151;-57
2024/01/29 10:19:12;;;;;;;4.80;2.83;;;;;;;;;;5061534;28;20485;-57
2024/01/29 10:21:39;;;;;;;4.10;2.95;;;;;;;;;;5057302;28;20075;-56
2024/01/29 10:24:13;;;;;;;5.60;2.85;;;;;;;;;;5066288;28;20390;-56
2024/01/29 10:26:39;;;;;;;5.05;2.97;;;;;;;;;;5063448;28;20052;-56
2024/01/29 10:29:07;;;;;;;4.97;2.88;;;;;;;;;;5071958;28;20055;-56
2024/01/29 10:31:34;;;;;;;6.93;3.00;;;;;;;;;;5063909;28;20055;-56
2024/01/29 10:34:01;;;;;;;6.38;3.03;;;;;;;;;;5062447;28;20057;-57
2024/01/29 10:36:29;;;;;;;4.25;2.95;;;;;;;;;;5068579;28;20049;-58
2024/01/29 10:38:58;;;;;;;4.18;3.00;;;;;;;;;;5065558;28;20053;-57
2024/01/29 10:41:26;;;;;;;4.03;3.05;;;;;;;;;;5070708;28;20075;-58
2024/01/29 10:43:54;;;;;;;4.40;3.15;;;;;;;;;;5063293;28;20049;-57
2024/01/29 10:46:21;;;;;;;4.35;3.03;;;;;;;;;;5052785;28;20052;-57
2024/01/29 10:48:48;;;;;;;4.68;2.63;;;;;;;;;;5060622;28;20048;-57
2024/01/29 10:51:15;;;;;;;5.05;3.00;;;;;;;;;;5085071;28;20155;-57
2024/01/29 10:53:43;;;;;;;6.13;3.08;;;;;;;;;;5081680;28;20059;-58
2024/01/29 10:56:10;;;;;;;3.30;2.80;;;;;;;;;;5063946;28;20056;-57
2024/01/29 10:58:39;;;;;;;3.10;2.63;;;;;;;;;;5062488;28;20044;-57
2024/01/29 11:01:06;;;;;;;5.10;3.40;;;;;;;;;;5062682;28;20057;-57
2024/01/29 11:03:33;;;;;;;4.22;3.17;;;;;;;;;;5064479;28;20499;-57
2024/01/29 11:06:05;;;;;;;4.72;2.92;;;;;;;;;;5074263;28;20052;-57
2024/01/29 11:08:33;;;;;;;4.20;2.80;;;;;;;;;;5074794;28;20052;-59
2024/01/29 11:11:00;;;;;;;3.83;3.00;;;;;;;;;;5074253;28;20052;-57
2024/01/29 11:13:29;;;;;;;5.05;3.05;;;;;;;;;;5055653;28;20052;-57
2024/01/29 11:15:57;;;;;;;3.53;2.67;;;;;;;;;;5061248;28;20052;-56
2024/01/29 11:18:24;;;;;;;3.23;2.80;;;;;;;;;;5064428;28;20406;-57
2024/01/29 11:20:51;;;;;;;5.03;3.22;;;;;;;;;;5071813;28;20060;-56
2024/01/29 11:23:22;;;;;;;3.78;3.03;;;;;;;;;;5065273;28;20061;-56
2024/01/29 11:25:49;;;;;;;4.25;2.88;;;;;;;;;;5071074;28;20055;-57
2024/01/29 11:28:15;;;;;;;4.80;2.72;;;;;;;;;;5060637;28;20060;-57
2024/01/29 11:30:48;;;;;;;4.68;2.90;;;;;;;;;;5059951;28;20044;-57
2024/01/29 11:33:18;;;;;;;3.83;3.03;;;;;;;;;;5063260;28;20049;-57
2024/01/29 11:35:46;;;;;;;3.35;2.60;;;;;;;;;;5055978;28;20063;-57
2024/01/29 11:38:13;;;;;;;3.38;2.83;;;;;;;;;;5057236;28;20048;-56
2024/01/29 11:40:41;;;;;;;3.33;2.80;;;;;;;;;;5051966;28;20087;-58
2024/01/29 11:43:11;;;;;;;3.70;3.10;;;;;;;;;;5052802;28;20052;-58
2024/01/29 11:45:38;;;;;;;3.63;2.90;;;;;;;;;;5058266;28;20053;-57
2024/01/29 11:48:08;;;;;;;3.35;2.63;;;;;;;;;;5054141;28;20060;-56
2024/01/29 11:50:37;;;;;;;4.22;2.80;;;;;;;;;;5057631;28;20052;-58
2024/01/29 11:53:04;;;;;;;3.83;2.80;;;;;;;;;;5056710;28;20052;-57
2024/01/29 11:55:32;;;;;;;3.25;2.60;;;;;;;;;;5062939;28;20049;-58
2024/01/29 11:57:59;;;;;;;4.10;2.67;;;;;;;;;;5051407;28;20509;-58
2024/01/29 12:00:25;;;;;;;3.13;2.58;;;;;;;;;;5052967;28;20053;-59
2024/01/29 12:02:52;;;;;;;2.97;2.67;;;;;;;;;;5058890;28;20060;-59
2024/01/29 12:05:19;;;;;;;3.17;2.40;;;;;;;;;;5053015;28;20406;-57
2024/01/29 12:07:48;;;;;;;4.53;2.88;;;;;;;;;;5057934;28;20053;-57
2024/01/29 12:10:14;;;;;;;4.40;2.72;;;;;;;;;;5054894;28;20053;-56
2024/01/29 12:12:41;;;;;;;4.20;2.72;;;;;;;;;;5071331;28;20052;-57
2024/01/29 12:15:09;;;;;;;3.95;2.97;;;;;;;;;;5073961;28;20060;-59
2024/01/29 12:17:37;;;;;;;3.22;2.92;;;;;;;;;;5075024;28;20340;-58
2024/01/29 12:20:05;;;;;;;4.70;2.80;;;;;;;;;;5071941;28;20374;-58
2024/01/29 12:22:31;;;;;;;4.15;3.53;;;;;;;;;;5060010;28;20051;-58
2024/01/29 12:25:00;;;;;;;3.20;2.70;;;;;;;;;;5059788;28;20056;-58
2024/01/29 12:27:26;;;;;;;4.00;2.83;;;;;;;;;;5064988;28;20044;-58
2024/01/29 12:29:54;;;;;;;4.45;2.75;;;;;;;;;;5067022;28;20502;-60
2024/01/29 12:32:21;;;;;;;3.70;3.03;;;;;;;;;;5057577;28;20056;-57
2024/01/29 12:34:48;;;;;;;4.60;2.95;;;;;;;;;;5059613;28;20402;-58
2024/01/29 12:37:18;;;;;;;3.10;2.80;;;;;;;;;;5061575;28;20064;-58
2024/01/29 12:39:49;;;;;;;3.60;2.90;;;;;;;;;;5064904;28;20053;-59
2024/01/29 12:42:18;;;;;;;5.55;2.88;;;;;;;;;;5062584;28;20055;-58
2024/01/29 12:44:44;;;;;;;4.10;2.83;;;;;;;;;;5072299;28;20048;-59
2024/01/29 12:47:12;;;;;;;4.85;3.10;;;;;;;;;;5066799;28;20052;-58
2024/01/29 12:49:39;;;;;;;3.90;2.90;;;;;;;;;;5055806;28;20394;-57
2024/01/29 12:52:07;;;;;;;3.35;2.75;;;;;;;;;;5058234;28;20068;-57
2024/01/29 12:54:33;;;;;;;4.68;3.00;;;;;;;;;;5057762;28;20056;-57
2024/01/29 12:57:00;;;;;;;4.55;3.00;;;;;;;;;;5056509;28;20056;-58
2024/01/29 12:59:29;;;;;;;4.00;3.17;;;;;;;;;;5063400;28;20410;-58
2024/01/29 13:01:56;;;;;;;5.43;3.42;;;;;;;;;;5064214;28;20380;-57
2024/01/29 13:04:23;;;;;;;5.15;3.40;;;;;;;;;;5057811;28;20059;-58
2024/01/29 13:06:50;;;;;;;5.28;3.20;;;;;;;;;;5061111;28;20053;-57
2024/01/29 13:09:17;;;;;;;5.82;3.10;;;;;;;;;;5072274;28;20049;-59
2024/01/29 13:11:44;;;;;;;5.45;3.15;;;;;;;;;;5055008;28;20052;-58
2024/01/29 13:14:11;;;;;;;3.92;3.53;;;;;;;;;;5053306;28;20640;-58
2024/01/29 13:16:39;;;;;;;4.50;3.28;;;;;;;;;;5057913;28;20071;-57
2024/01/29 13:19:06;;;;;;;4.57;3.75;;;;;;;;;;5056101;28;20060;-58
2024/01/29 13:21:34;;;;;;;4.53;3.03;;;;;;;;;;5064476;28;20053;-58
2024/01/29 13:24:02;;;;;;;3.72;3.30;;;;;;;;;;5061863;28;20056;-58
2024/01/29 13:26:31;;;;;;;4.55;3.08;;;;;;;;;;5054681;28;20391;-58
2024/01/29 13:28:58;;;;;;;;;;;;;;;;;;5060000;28;20060;-58
2024/01/29 13:31:25;;;;;;;3.80;2.90;;;;;;;;;;5057364;28;19927;-58
2024/01/29 13:33:53;;;;;;;3.60;2.72;;;;;;;;;;5071197;28;20064;-58
2024/01/29 13:36:20;;;;;;;6.13;3.15;;;;;;;;;;5073697;28;20056;-58
2024/01/29 13:38:46;;;;;;;6.18;3.53;;;;;;;;;;5062564;28;20048;-58
2024/01/29 13:41:13;;;;;;;5.57;3.53;;;;;;;;;;5069729;28;20500;-58
2024/01/29 13:43:40;;;;;;;3.72;3.20;;;;;;;;;;5054631;28;20053;-58
2024/01/29 13:46:07;;;;;;;3.85;3.42;;;;;;;;;;5058903;28;20052;-59
2024/01/29 13:48:34;;;;;;;4.93;2.95;;;;;;;;;;5069836;28;20059;-58
2024/01/29 13:51:02;;;;;;;4.68;3.30;;;;;;;;;;5073276;28;20056;-58
2024/01/29 13:53:29;;;;;;;3.80;3.22;;;;;;;;;;5067361;28;20486;-58
2024/01/29 13:55:55;;;;;;;4.22;2.97;;;;;;;;;;5070471;28;20052;-59
2024/01/29 13:58:22;;;;;;;5.18;3.20;;;;;;;;;;5064521;28;20060;-58
2024/01/29 14:00:49;;;;;;;5.25;3.13;;;;;;;;;;5059654;28;20049;-59
2024/01/29 14:03:16;;;;;;;6.60;3.70;;;;;;;;;;5059738;28;20063;-58
2024/01/29 14:05:43;;;;;;;3.65;3.08;;;;;;;;;;5057078;28;20045;-58
2024/01/29 14:08:11;;;;;;;4.85;3.17;;;;;;;;;;5053729;28;20059;-58
2024/01/29 14:10:37;;;;;;;4.13;3.17;;;;;;;;;;5054469;28;20387;-57
2024/01/29 14:13:04;;;;;;;4.55;3.30;;;;;;;;;;5052693;28;20445;-58
2024/01/29 14:15:31;;;;;;;5.22;3.65;;;;;;;;;;5063331;28;20044;-58
2024/01/29 14:17:58;;;;;;;4.60;3.22;;;;;;;;;;5052751;28;20053;-57
2024/01/29 14:20:25;;;;;;;5.05;3.45;;;;;;;;;;5063274;28;20044;-56
2024/01/29 14:22:56;;;;;;;5.82;3.45;;;;;;;;;;5064671;28;20053;-57
2024/01/29 14:25:24;;;;;;;6.32;3.60;;;;;;;;;;5063007;28;20505;-57
2024/01/29 14:27:52;;;;;;;5.35;3.38;;;;;;;;;;5061620;28;20056;-58
2024/01/29 14:30:19;;;;;;;6.78;3.55;;;;;;;;;;5052664;28;20052;-58
2024/01/29 14:32:45;;;;;;;5.55;3.47;;;;;;;;;;5056064;28;20048;-58
2024/01/29 14:35:12;;;;;;;4.13;3.35;;;;;;;;;;5060349;28;20060;-58
2024/01/29 14:37:41;;;;;;;6.15;3.70;;;;;;;;;;5062274;28;20052;-58
2024/01/29 14:40:08;;;;;;;6.57;4.00;;;;;;;;;;5065440;28;20516;-58
2024/01/29 14:42:37;;;;;;;7.17;3.37;;;;;;;;;;5067566;28;20467;-57